sensor_id;sensor_type;location;lat;lon;timestamp;temperature;humidity
35531;DHT22;21637;53.352;-6.356;2023-11-19T00:00:45;11.10;99.90
35531;DHT22;21637;53.352;-6.356;2023-11-19T00:03:11;11.20;99.90
35531;DHT22;21637;53.352;-6.356;2023-11-19T00:05:38;11.20;99.90
35531;DHT22;21637;53.352;-6.356;2023-11-19T00:08:04;11.20;99.90
35531;DHT22;21637;53.352;-6.356;2023-11-19T00:10:31;11.30;99.90
35531;DHT22;21637;53.352;-6.356;2023-11-19T00:12:57;11.30;99.90
35531;DHT22;21637;53.352;-6.356;2023-11-19T00:15:23;11.20;99.90
35531;DHT22;21637;53.352;-6.356;2023-11-19T00:17:50;11.20;99.90
35531;DHT22;21637;53.352;-6.356;2023-11-19T00:20:19;11.20;99.90
35531;DHT22;21637;53.352;-6.356;2023-11-19T00:22:47;11.10;99.90
35531;DHT22;21637;53.352;-6.356;2023-11-19T00:25:14;11.10;99.90
35531;DHT22;21637;53.352;-6.356;2023-11-19T00:27:40;11.10;99.90
35531;DHT22;21637;53.352;-6.356;2023-11-19T00:30:06;11.10;99.90
35531;DHT22;21637;53.352;-6.356;2023-11-19T00:32:33;11.10;99.90
35531;DHT22;21637;53.352;-6.356;2023-11-19T00:34:59;11.10;99.90
35531;DHT22;21637;53.352;-6.356;2023-11-19T00:37:25;11.00;99.90
35531;DHT22;21637;53.352;-6.356;2023-11-19T00:39:51;11.00;99.90
35531;DHT22;21637;53.352;-6.356;2023-11-19T00:42:17;11.00;99.90
35531;DHT22;21637;53.352;-6.356;2023-11-19T00:44:43;11.00;99.90
35531;DHT22;21637;53.352;-6.356;2023-11-19T00:47:09;10.90;99.90
35531;DHT22;21637;53.352;-6.356;2023-11-19T00:49:35;11.00;99.90
35531;DHT22;21637;53.352;-6.356;2023-11-19T00:52:01;11.00;99.90
35531;DHT22;21637;53.352;-6.356;2023-11-19T00:54:28;11.00;99.90
35531;DHT22;21637;53.352;-6.356;2023-11-19T00:56:53;11.00;99.90
35531;DHT22;21637;53.352;-6.356;2023-11-19T00:59:19;11.00;99.90
35531;DHT22;21637;53.352;-6.356;2023-11-19T01:01:45;11.00;99.90
35531;DHT22;21637;53.352;-6.356;2023-11-19T01:04:13;11.00;99.90
35531;DHT22;21637;53.352;-6.356;2023-11-19T01:06:40;11.00;99.90
35531;DHT22;21637;53.352;-6.356;2023-11-19T01:09:06;11.00;99.90
35531;DHT22;21637;53.352;-6.356;2023-11-19T01:11:34;10.90;99.90
35531;DHT22;21637;53.352;-6.356;2023-11-19T01:14:01;10.90;99.90
35531;DHT22;21637;53.352;-6.356;2023-11-19T01:16:27;10.90;99.90
35531;DHT22;21637;53.352;-6.356;2023-11-19T01:18:53;10.90;99.90
35531;DHT22;21637;53.352;-6.356;2023-11-19T01:21:19;10.80;99.90
35531;DHT22;21637;53.352;-6.356;2023-11-19T01:23:44;10.80;99.90
35531;DHT22;21637;53.352;-6.356;2023-11-19T01:26:14;10.80;99.90
35531;DHT22;21637;53.352;-6.356;2023-11-19T01:28:40;10.80;99.90
35531;DHT22;21637;53.352;-6.356;2023-11-19T01:31:08;10.80;99.90
35531;DHT22;21637;53.352;-6.356;2023-11-19T01:33:36;10.80;99.90
35531;DHT22;21637;53.352;-6.356;2023-11-19T01:36:02;10.80;99.90
35531;DHT22;21637;53.352;-6.356;2023-11-19T01:38:28;10.80;99.90
35531;DHT22;21637;53.352;-6.356;2023-11-19T01:40:57;10.80;99.90
35531;DHT22;21637;53.352;-6.356;2023-11-19T01:43:35;10.90;99.90
35531;DHT22;21637;53.352;-6.356;2023-11-19T01:46:02;10.90;99.90
35531;DHT22;21637;53.352;-6.356;2023-11-19T01:48:29;10.90;99.90
35531;DHT22;21637;53.352;-6.356;2023-11-19T01:50:56;11.00;99.90
35531;DHT22;21637;53.352;-6.356;2023-11-19T01:53:23;11.00;99.90
35531;DHT22;21637;53.352;-6.356;2023-11-19T01:55:49;11.00;99.90
35531;DHT22;21637;53.352;-6.356;2023-11-19T01:58:16;11.00;99.90
35531;DHT22;21637;53.352;-6.356;2023-11-19T02:00:43;11.10;99.90
35531;DHT22;21637;53.352;-6.356;2023-11-19T02:03:09;11.10;99.90
35531;DHT22;21637;53.352;-6.356;2023-11-19T02:05:36;11.10;99.90
35531;DHT22;21637;53.352;-6.356;2023-11-19T02:08:02;11.10;99.90
35531;DHT22;21637;53.352;-6.356;2023-11-19T02:10:28;11.10;99.90
35531;DHT22;21637;53.352;-6.356;2023-11-19T02:12:54;11.10;99.90
35531;DHT22;21637;53.352;-6.356;2023-11-19T02:15:20;11.10;99.90
35531;DHT22;21637;53.352;-6.356;2023-11-19T02:17:52;11.10;99.90
35531;DHT22;21637;53.352;-6.356;2023-11-19T02:20:18;11.10;99.90
35531;DHT22;21637;53.352;-6.356;2023-11-19T02:22:49;11.10;99.90
35531;DHT22;21637;53.352;-6.356;2023-11-19T02:25:30;11.00;99.90
35531;DHT22;21637;53.352;-6.356;2023-11-19T02:28:01;11.00;99.90
35531;DHT22;21637;53.352;-6.356;2023-11-19T02:30:27;11.10;99.90
35531;DHT22;21637;53.352;-6.356;2023-11-19T02:32:57;11.00;99.90
35531;DHT22;21637;53.352;-6.356;2023-11-19T02:35:27;11.10;99.90
35531;DHT22;21637;53.352;-6.356;2023-11-19T02:37:56;11.10;99.90
35531;DHT22;21637;53.352;-6.356;2023-11-19T02:40:22;11.20;99.90
35531;DHT22;21637;53.352;-6.356;2023-11-19T02:42:50;11.30;99.90
35531;DHT22;21637;53.352;-6.356;2023-11-19T02:45:16;11.20;99.90
35531;DHT22;21637;53.352;-6.356;2023-11-19T02:47:43;11.20;99.90
35531;DHT22;21637;53.352;-6.356;2023-11-19T02:50:10;11.20;99.90
35531;DHT22;21637;53.352;-6.356;2023-11-19T02:52:43;11.20;99.90
35531;DHT22;21637;53.352;-6.356;2023-11-19T02:55:13;11.20;99.90
35531;DHT22;21637;53.352;-6.356;2023-11-19T02:57:40;11.20;99.90
35531;DHT22;21637;53.352;-6.356;2023-11-19T03:00:15;11.20;99.90
35531;DHT22;21637;53.352;-6.356;2023-11-19T03:02:41;11.30;99.90
35531;DHT22;21637;53.352;-6.356;2023-11-19T03:05:12;11.30;99.90
35531;DHT22;21637;53.352;-6.356;2023-11-19T03:07:40;11.30;99.90
35531;DHT22;21637;53.352;-6.356;2023-11-19T03:10:08;11.30;99.90
35531;DHT22;21637;53.352;-6.356;2023-11-19T03:12:34;11.30;99.90
35531;DHT22;21637;53.352;-6.356;2023-11-19T03:15:01;11.40;99.90
35531;DHT22;21637;53.352;-6.356;2023-11-19T03:17:27;11.40;99.90
35531;DHT22;21637;53.352;-6.356;2023-11-19T03:19:52;11.30;99.90
35531;DHT22;21637;53.352;-6.356;2023-11-19T03:22:18;11.40;99.90
35531;DHT22;21637;53.352;-6.356;2023-11-19T03:24:44;11.40;99.90
35531;DHT22;21637;53.352;-6.356;2023-11-19T03:27:09;11.40;99.90
35531;DHT22;21637;53.352;-6.356;2023-11-19T03:29:36;11.40;99.90
35531;DHT22;21637;53.352;-6.356;2023-11-19T03:32:03;11.40;99.90
35531;DHT22;21637;53.352;-6.356;2023-11-19T03:34:29;11.50;99.90
35531;DHT22;21637;53.352;-6.356;2023-11-19T03:36:55;11.50;99.90
35531;DHT22;21637;53.352;-6.356;2023-11-19T03:39:21;11.50;99.90
35531;DHT22;21637;53.352;-6.356;2023-11-19T03:41:50;11.50;99.90
35531;DHT22;21637;53.352;-6.356;2023-11-19T03:44:16;11.50;99.90
35531;DHT22;21637;53.352;-6.356;2023-11-19T03:46:42;11.50;99.90
35531;DHT22;21637;53.352;-6.356;2023-11-19T03:49:07;11.40;99.90
35531;DHT22;21637;53.352;-6.356;2023-11-19T03:51:33;11.40;99.90
35531;DHT22;21637;53.352;-6.356;2023-11-19T03:54:00;11.40;99.90
35531;DHT22;21637;53.352;-6.356;2023-11-19T03:56:26;11.40;99.90
35531;DHT22;21637;53.352;-6.356;2023-11-19T03:58:52;11.30;99.90
35531;DHT22;21637;53.352;-6.356;2023-11-19T04:01:18;11.30;99.90
35531;DHT22;21637;53.352;-6.356;2023-11-19T04:03:44;11.30;99.90
35531;DHT22;21637;53.352;-6.356;2023-11-19T04:06:10;11.30;99.90
35531;DHT22;21637;53.352;-6.356;2023-11-19T04:08:38;11.20;99.90
35531;DHT22;21637;53.352;-6.356;2023-11-19T04:11:06;11.30;99.90
35531;DHT22;21637;53.352;-6.356;2023-11-19T04:13:40;11.30;99.90
35531;DHT22;21637;53.352;-6.356;2023-11-19T04:16:05;11.30;99.90
35531;DHT22;21637;53.352;-6.356;2023-11-19T04:18:31;11.20;99.90
35531;DHT22;21637;53.352;-6.356;2023-11-19T04:21:00;11.20;99.90
35531;DHT22;21637;53.352;-6.356;2023-11-19T04:23:25;11.20;99.90
35531;DHT22;21637;53.352;-6.356;2023-11-19T04:25:51;11.30;99.90
35531;DHT22;21637;53.352;-6.356;2023-11-19T04:28:17;11.30;99.90
35531;DHT22;21637;53.352;-6.356;2023-11-19T04:30:43;11.30;99.90
35531;DHT22;21637;53.352;-6.356;2023-11-19T04:33:09;11.40;99.90
35531;DHT22;21637;53.352;-6.356;2023-11-19T04:35:35;11.40;99.90
35531;DHT22;21637;53.352;-6.356;2023-11-19T04:38:02;11.30;99.90
35531;DHT22;21637;53.352;-6.356;2023-11-19T04:40:27;11.30;99.90
35531;DHT22;21637;53.352;-6.356;2023-11-19T04:42:53;11.30;99.90
35531;DHT22;21637;53.352;-6.356;2023-11-19T04:45:19;11.20;99.90
35531;DHT22;21637;53.352;-6.356;2023-11-19T04:47:45;11.20;99.90
35531;DHT22;21637;53.352;-6.356;2023-11-19T04:50:11;11.20;99.90
35531;DHT22;21637;53.352;-6.356;2023-11-19T04:52:40;11.20;99.90
35531;DHT22;21637;53.352;-6.356;2023-11-19T04:55:07;11.10;99.90
35531;DHT22;21637;53.352;-6.356;2023-11-19T04:57:32;11.10;99.90
35531;DHT22;21637;53.352;-6.356;2023-11-19T04:59:58;11.10;99.90
35531;DHT22;21637;53.352;-6.356;2023-11-19T05:02:24;11.10;99.90
35531;DHT22;21637;53.352;-6.356;2023-11-19T05:04:50;11.20;99.90
35531;DHT22;21637;53.352;-6.356;2023-11-19T05:07:16;11.20;99.90
35531;DHT22;21637;53.352;-6.356;2023-11-19T05:09:41;11.20;99.90
35531;DHT22;21637;53.352;-6.356;2023-11-19T05:12:10;11.20;99.90
35531;DHT22;21637;53.352;-6.356;2023-11-19T05:14:38;11.20;99.90
35531;DHT22;21637;53.352;-6.356;2023-11-19T05:17:04;11.20;99.90
35531;DHT22;21637;53.352;-6.356;2023-11-19T05:19:29;11.20;99.90
35531;DHT22;21637;53.352;-6.356;2023-11-19T05:21:55;11.20;99.90
35531;DHT22;21637;53.352;-6.356;2023-11-19T05:24:21;11.30;99.90
35531;DHT22;21637;53.352;-6.356;2023-11-19T05:26:46;11.20;99.90
35531;DHT22;21637;53.352;-6.356;2023-11-19T05:29:12;11.20;99.90
35531;DHT22;21637;53.352;-6.356;2023-11-19T05:31:38;11.30;99.90
35531;DHT22;21637;53.352;-6.356;2023-11-19T05:34:04;11.20;99.90
35531;DHT22;21637;53.352;-6.356;2023-11-19T05:36:30;11.30;99.90
35531;DHT22;21637;53.352;-6.356;2023-11-19T05:38:56;11.20;99.90
35531;DHT22;21637;53.352;-6.356;2023-11-19T05:41:21;11.20;99.90
35531;DHT22;21637;53.352;-6.356;2023-11-19T05:43:47;11.20;99.90
35531;DHT22;21637;53.352;-6.356;2023-11-19T05:46:13;11.20;99.90
35531;DHT22;21637;53.352;-6.356;2023-11-19T05:48:39;11.30;99.90
35531;DHT22;21637;53.352;-6.356;2023-11-19T05:51:05;11.30;99.90
35531;DHT22;21637;53.352;-6.356;2023-11-19T05:53:31;11.30;99.90
35531;DHT22;21637;53.352;-6.356;2023-11-19T05:55:57;11.30;99.90
35531;DHT22;21637;53.352;-6.356;2023-11-19T05:58:25;11.30;99.90
35531;DHT22;21637;53.352;-6.356;2023-11-19T06:00:57;11.30;99.90
35531;DHT22;21637;53.352;-6.356;2023-11-19T06:03:26;11.20;99.90
35531;DHT22;21637;53.352;-6.356;2023-11-19T06:05:52;11.20;99.90
35531;DHT22;21637;53.352;-6.356;2023-11-19T06:08:20;11.20;99.90
35531;DHT22;21637;53.352;-6.356;2023-11-19T06:10:46;11.20;99.90
35531;DHT22;21637;53.352;-6.356;2023-11-19T06:13:13;11.20;99.90
35531;DHT22;21637;53.352;-6.356;2023-11-19T06:15:43;11.20;99.90
35531;DHT22;21637;53.352;-6.356;2023-11-19T06:18:10;11.20;99.90
35531;DHT22;21637;53.352;-6.356;2023-11-19T06:20:37;11.20;99.90
35531;DHT22;21637;53.352;-6.356;2023-11-19T06:23:03;11.20;99.90
35531;DHT22;21637;53.352;-6.356;2023-11-19T06:25:28;11.20;99.90
35531;DHT22;21637;53.352;-6.356;2023-11-19T06:27:54;11.20;99.90
35531;DHT22;21637;53.352;-6.356;2023-11-19T06:30:20;11.20;99.90
35531;DHT22;21637;53.352;-6.356;2023-11-19T06:32:46;11.20;99.90
35531;DHT22;21637;53.352;-6.356;2023-11-19T06:35:12;11.20;99.90
35531;DHT22;21637;53.352;-6.356;2023-11-19T06:37:40;11.20;99.90
35531;DHT22;21637;53.352;-6.356;2023-11-19T06:40:07;11.20;99.90
35531;DHT22;21637;53.352;-6.356;2023-11-19T06:42:35;11.20;99.90
35531;DHT22;21637;53.352;-6.356;2023-11-19T06:45:01;11.20;99.90
35531;DHT22;21637;53.352;-6.356;2023-11-19T06:47:27;11.20;99.90
35531;DHT22;21637;53.352;-6.356;2023-11-19T06:49:54;11.10;99.90
35531;DHT22;21637;53.352;-6.356;2023-11-19T06:52:20;11.10;99.90
35531;DHT22;21637;53.352;-6.356;2023-11-19T06:54:46;11.20;99.90
35531;DHT22;21637;53.352;-6.356;2023-11-19T06:57:12;11.10;99.90
35531;DHT22;21637;53.352;-6.356;2023-11-19T06:59:38;11.10;99.90
35531;DHT22;21637;53.352;-6.356;2023-11-19T07:02:05;11.20;99.90
35531;DHT22;21637;53.352;-6.356;2023-11-19T07:04:31;11.20;99.90
35531;DHT22;21637;53.352;-6.356;2023-11-19T07:06:57;11.20;99.90
35531;DHT22;21637;53.352;-6.356;2023-11-19T07:09:22;11.30;99.90
35531;DHT22;21637;53.352;-6.356;2023-11-19T07:11:49;11.30;99.90
35531;DHT22;21637;53.352;-6.356;2023-11-19T07:14:18;11.30;99.90
35531;DHT22;21637;53.352;-6.356;2023-11-19T07:16:44;11.30;99.90
35531;DHT22;21637;53.352;-6.356;2023-11-19T07:19:11;11.30;99.90
35531;DHT22;21637;53.352;-6.356;2023-11-19T07:21:41;11.20;99.90
35531;DHT22;21637;53.352;-6.356;2023-11-19T07:24:10;11.20;99.90
35531;DHT22;21637;53.352;-6.356;2023-11-19T07:26:39;11.20;99.90
35531;DHT22;21637;53.352;-6.356;2023-11-19T07:29:05;11.20;99.90
35531;DHT22;21637;53.352;-6.356;2023-11-19T07:31:33;11.20;99.90
35531;DHT22;21637;53.352;-6.356;2023-11-19T07:33:58;11.20;99.90
35531;DHT22;21637;53.352;-6.356;2023-11-19T07:36:24;11.20;99.90
35531;DHT22;21637;53.352;-6.356;2023-11-19T07:38:50;11.30;99.90
35531;DHT22;21637;53.352;-6.356;2023-11-19T07:41:16;11.40;99.90
35531;DHT22;21637;53.352;-6.356;2023-11-19T07:43:44;11.40;99.90
35531;DHT22;21637;53.352;-6.356;2023-11-19T07:46:12;11.50;99.90
35531;DHT22;21637;53.352;-6.356;2023-11-19T07:48:39;11.50;99.90
35531;DHT22;21637;53.352;-6.356;2023-11-19T07:51:05;11.40;99.90
35531;DHT22;21637;53.352;-6.356;2023-11-19T07:53:31;11.50;99.90
35531;DHT22;21637;53.352;-6.356;2023-11-19T07:55:58;11.50;99.90
35531;DHT22;21637;53.352;-6.356;2023-11-19T07:58:27;11.50;99.90
35531;DHT22;21637;53.352;-6.356;2023-11-19T08:00:53;11.50;99.90
35531;DHT22;21637;53.352;-6.356;2023-11-19T08:03:18;11.50;99.90
35531;DHT22;21637;53.352;-6.356;2023-11-19T08:05:45;11.60;99.90
35531;DHT22;21637;53.352;-6.356;2023-11-19T08:08:11;11.60;99.90
35531;DHT22;21637;53.352;-6.356;2023-11-19T08:10:37;11.60;99.90
35531;DHT22;21637;53.352;-6.356;2023-11-19T08:13:03;11.60;99.90
35531;DHT22;21637;53.352;-6.356;2023-11-19T08:15:29;11.60;99.90
35531;DHT22;21637;53.352;-6.356;2023-11-19T08:17:55;11.70;99.90
35531;DHT22;21637;53.352;-6.356;2023-11-19T08:20:22;11.70;99.90
35531;DHT22;21637;53.352;-6.356;2023-11-19T08:22:48;11.80;99.90
35531;DHT22;21637;53.352;-6.356;2023-11-19T08:25:14;11.80;99.90
35531;DHT22;21637;53.352;-6.356;2023-11-19T08:27:39;11.90;99.90
35531;DHT22;21637;53.352;-6.356;2023-11-19T08:30:06;11.90;99.90
35531;DHT22;21637;53.352;-6.356;2023-11-19T08:32:32;11.90;99.90
35531;DHT22;21637;53.352;-6.356;2023-11-19T08:34:58;11.90;99.90
35531;DHT22;21637;53.352;-6.356;2023-11-19T08:37:24;11.90;99.90
35531;DHT22;21637;53.352;-6.356;2023-11-19T08:39:50;11.90;99.90
35531;DHT22;21637;53.352;-6.356;2023-11-19T08:42:16;11.90;99.90
35531;DHT22;21637;53.352;-6.356;2023-11-19T08:44:43;11.80;99.90
35531;DHT22;21637;53.352;-6.356;2023-11-19T08:47:12;11.80;99.90
35531;DHT22;21637;53.352;-6.356;2023-11-19T08:49:41;11.80;99.90
35531;DHT22;21637;53.352;-6.356;2023-11-19T08:52:07;11.80;99.90
35531;DHT22;21637;53.352;-6.356;2023-11-19T08:54:33;11.80;99.90
35531;DHT22;21637;53.352;-6.356;2023-11-19T08:56:59;11.80;99.90
35531;DHT22;21637;53.352;-6.356;2023-11-19T08:59:26;11.90;99.90
35531;DHT22;21637;53.352;-6.356;2023-11-19T09:01:51;12.00;99.90
35531;DHT22;21637;53.352;-6.356;2023-11-19T09:04:17;11.90;99.90
35531;DHT22;21637;53.352;-6.356;2023-11-19T09:06:43;11.90;99.90
35531;DHT22;21637;53.352;-6.356;2023-11-19T09:09:09;11.90;99.90
35531;DHT22;21637;53.352;-6.356;2023-11-19T09:11:35;11.80;99.90
35531;DHT22;21637;53.352;-6.356;2023-11-19T09:14:02;11.80;99.90
35531;DHT22;21637;53.352;-6.356;2023-11-19T09:16:28;11.90;99.90
35531;DHT22;21637;53.352;-6.356;2023-11-19T09:18:53;11.90;99.90
35531;DHT22;21637;53.352;-6.356;2023-11-19T09:21:19;11.80;99.90
35531;DHT22;21637;53.352;-6.356;2023-11-19T09:23:45;11.90;99.90
35531;DHT22;21637;53.352;-6.356;2023-11-19T09:26:15;11.80;99.90
35531;DHT22;21637;53.352;-6.356;2023-11-19T09:28:41;11.90;99.90
35531;DHT22;21637;53.352;-6.356;2023-11-19T09:31:17;11.90;99.90
35531;DHT22;21637;53.352;-6.356;2023-11-19T09:33:44;11.90;99.90
35531;DHT22;21637;53.352;-6.356;2023-11-19T09:36:12;12.00;99.90
35531;DHT22;21637;53.352;-6.356;2023-11-19T09:38:40;12.10;99.90
35531;DHT22;21637;53.352;-6.356;2023-11-19T09:41:06;12.10;99.90
35531;DHT22;21637;53.352;-6.356;2023-11-19T09:43:35;12.10;99.90
35531;DHT22;21637;53.352;-6.356;2023-11-19T09:46:05;12.10;99.90
35531;DHT22;21637;53.352;-6.356;2023-11-19T09:48:33;12.20;99.90
35531;DHT22;21637;53.352;-6.356;2023-11-19T09:51:01;12.20;99.90
35531;DHT22;21637;53.352;-6.356;2023-11-19T09:53:27;12.30;99.90
35531;DHT22;21637;53.352;-6.356;2023-11-19T09:55:53;12.30;99.90
35531;DHT22;21637;53.352;-6.356;2023-11-19T09:58:19;12.40;99.90
35531;DHT22;21637;53.352;-6.356;2023-11-19T10:00:45;12.30;99.90
35531;DHT22;21637;53.352;-6.356;2023-11-19T10:03:11;12.40;99.90
35531;DHT22;21637;53.352;-6.356;2023-11-19T10:05:38;12.40;99.90
35531;DHT22;21637;53.352;-6.356;2023-11-19T10:08:07;12.50;99.90
35531;DHT22;21637;53.352;-6.356;2023-11-19T10:10:34;12.50;99.90
35531;DHT22;21637;53.352;-6.356;2023-11-19T10:13:01;12.50;99.90
35531;DHT22;21637;53.352;-6.356;2023-11-19T10:15:26;12.50;99.90
35531;DHT22;21637;53.352;-6.356;2023-11-19T10:17:58;12.30;99.90
35531;DHT22;21637;53.352;-6.356;2023-11-19T10:20:24;12.30;99.90
35531;DHT22;21637;53.352;-6.356;2023-11-19T10:22:55;12.30;99.90
35531;DHT22;21637;53.352;-6.356;2023-11-19T10:25:23;12.30;99.90
35531;DHT22;21637;53.352;-6.356;2023-11-19T10:27:53;12.50;99.90
35531;DHT22;21637;53.352;-6.356;2023-11-19T10:30:29;12.40;99.90
35531;DHT22;21637;53.352;-6.356;2023-11-19T10:35:32;12.40;99.90
35531;DHT22;21637;53.352;-6.356;2023-11-19T10:38:14;12.50;99.90
35531;DHT22;21637;53.352;-6.356;2023-11-19T10:40:43;12.50;99.90
35531;DHT22;21637;53.352;-6.356;2023-11-19T10:43:09;12.60;99.90
35531;DHT22;21637;53.352;-6.356;2023-11-19T10:45:35;12.50;99.90
35531;DHT22;21637;53.352;-6.356;2023-11-19T10:48:05;12.60;99.90
35531;DHT22;21637;53.352;-6.356;2023-11-19T10:50:36;12.60;99.90
35531;DHT22;21637;53.352;-6.356;2023-11-19T10:53:03;12.70;99.90
35531;DHT22;21637;53.352;-6.356;2023-11-19T10:55:30;12.80;99.90
35531;DHT22;21637;53.352;-6.356;2023-11-19T10:57:59;12.70;99.90
35531;DHT22;21637;53.352;-6.356;2023-11-19T11:00:28;12.60;99.90
35531;DHT22;21637;53.352;-6.356;2023-11-19T11:03:00;12.70;99.90
35531;DHT22;21637;53.352;-6.356;2023-11-19T11:05:26;12.80;99.90
35531;DHT22;21637;53.352;-6.356;2023-11-19T11:07:55;12.70;99.90
35531;DHT22;21637;53.352;-6.356;2023-11-19T11:10:25;12.80;99.90
35531;DHT22;21637;53.352;-6.356;2023-11-19T11:12:52;12.80;99.90
35531;DHT22;21637;53.352;-6.356;2023-11-19T11:15:27;12.60;99.90
35531;DHT22;21637;53.352;-6.356;2023-11-19T11:18:02;12.70;99.90
35531;DHT22;21637;53.352;-6.356;2023-11-19T11:20:32;12.80;99.90
35531;DHT22;21637;53.352;-6.356;2023-11-19T11:28:46;12.70;99.90
35531;DHT22;21637;53.352;-6.356;2023-11-19T11:31:38;12.80;99.90
35531;DHT22;21637;53.352;-6.356;2023-11-19T11:39:40;12.80;99.90
35531;DHT22;21637;53.352;-6.356;2023-11-19T11:45:00;12.90;99.90
35531;DHT22;21637;53.352;-6.356;2023-11-19T11:47:26;12.90;99.90
35531;DHT22;21637;53.352;-6.356;2023-11-19T11:50:16;12.90;99.90
35531;DHT22;21637;53.352;-6.356;2023-11-19T11:55:29;12.80;99.90
35531;DHT22;21637;53.352;-6.356;2023-11-19T11:57:59;12.80;99.90
35531;DHT22;21637;53.352;-6.356;2023-11-19T12:00:32;12.70;99.90
35531;DHT22;21637;53.352;-6.356;2023-11-19T12:03:02;12.80;99.90
35531;DHT22;21637;53.352;-6.356;2023-11-19T12:05:30;12.80;99.90
35531;DHT22;21637;53.352;-6.356;2023-11-19T12:08:05;12.90;99.90
35531;DHT22;21637;53.352;-6.356;2023-11-19T12:10:37;12.80;99.90
35531;DHT22;21637;53.352;-6.356;2023-11-19T12:13:05;12.80;99.90
35531;DHT22;21637;53.352;-6.356;2023-11-19T12:18:31;12.80;99.90
35531;DHT22;21637;53.352;-6.356;2023-11-19T12:20:58;12.70;99.90
35531;DHT22;21637;53.352;-6.356;2023-11-19T12:23:31;12.80;99.90
35531;DHT22;21637;53.352;-6.356;2023-11-19T12:25:57;12.60;99.90
35531;DHT22;21637;53.352;-6.356;2023-11-19T12:28:24;12.70;99.90
35531;DHT22;21637;53.352;-6.356;2023-11-19T12:30:52;12.50;99.90
35531;DHT22;21637;53.352;-6.356;2023-11-19T12:33:19;12.60;99.90
35531;DHT22;21637;53.352;-6.356;2023-11-19T12:35:48;12.50;99.90
35531;DHT22;21637;53.352;-6.356;2023-11-19T12:38:20;12.60;99.90
35531;DHT22;21637;53.352;-6.356;2023-11-19T12:40:47;12.40;99.90
35531;DHT22;21637;53.352;-6.356;2023-11-19T12:43:21;12.50;99.90
35531;DHT22;21637;53.352;-6.356;2023-11-19T12:45:50;12.40;99.90
35531;DHT22;21637;53.352;-6.356;2023-11-19T12:48:16;12.40;99.90
35531;DHT22;21637;53.352;-6.356;2023-11-19T12:53:18;12.40;99.90
35531;DHT22;21637;53.352;-6.356;2023-11-19T12:55:44;12.40;99.90
35531;DHT22;21637;53.352;-6.356;2023-11-19T12:58:10;12.40;99.90
35531;DHT22;21637;53.352;-6.356;2023-11-19T13:00:36;12.30;99.90
35531;DHT22;21637;53.352;-6.356;2023-11-19T13:03:02;12.30;99.90
35531;DHT22;21637;53.352;-6.356;2023-11-19T13:05:33;12.20;99.90
35531;DHT22;21637;53.352;-6.356;2023-11-19T13:08:06;12.30;99.90
35531;DHT22;21637;53.352;-6.356;2023-11-19T13:13:14;12.30;99.90
35531;DHT22;21637;53.352;-6.356;2023-11-19T13:15:40;12.10;99.90
35531;DHT22;21637;53.352;-6.356;2023-11-19T13:18:06;12.20;99.90
35531;DHT22;21637;53.352;-6.356;2023-11-19T13:20:32;12.20;99.90
35531;DHT22;21637;53.352;-6.356;2023-11-19T13:23:00;12.10;99.90
35531;DHT22;21637;53.352;-6.356;2023-11-19T13:25:26;12.20;99.90
35531;DHT22;21637;53.352;-6.356;2023-11-19T13:27:53;12.10;99.90
35531;DHT22;21637;53.352;-6.356;2023-11-19T13:30:19;12.20;99.90
35531;DHT22;21637;53.352;-6.356;2023-11-19T13:32:45;12.20;99.90
35531;DHT22;21637;53.352;-6.356;2023-11-19T13:35:14;12.20;99.90
35531;DHT22;21637;53.352;-6.356;2023-11-19T13:37:40;12.20;99.90
35531;DHT22;21637;53.352;-6.356;2023-11-19T13:40:10;12.20;99.90
35531;DHT22;21637;53.352;-6.356;2023-11-19T13:42:39;12.20;99.90
35531;DHT22;21637;53.352;-6.356;2023-11-19T13:45:10;12.10;99.90
35531;DHT22;21637;53.352;-6.356;2023-11-19T13:47:38;12.10;99.90
35531;DHT22;21637;53.352;-6.356;2023-11-19T13:50:07;12.20;99.90
35531;DHT22;21637;53.352;-6.356;2023-11-19T13:52:34;12.20;99.90
35531;DHT22;21637;53.352;-6.356;2023-11-19T13:55:00;12.20;99.90
35531;DHT22;21637;53.352;-6.356;2023-11-19T13:57:26;12.30;99.90
35531;DHT22;21637;53.352;-6.356;2023-11-19T13:59:51;12.30;99.90
35531;DHT22;21637;53.352;-6.356;2023-11-19T14:02:17;12.40;99.90
35531;DHT22;21637;53.352;-6.356;2023-11-19T14:04:43;12.40;99.90
35531;DHT22;21637;53.352;-6.356;2023-11-19T14:07:09;12.30;99.90
35531;DHT22;21637;53.352;-6.356;2023-11-19T14:09:34;12.40;99.90
35531;DHT22;21637;53.352;-6.356;2023-11-19T14:12:00;12.40;99.90
35531;DHT22;21637;53.352;-6.356;2023-11-19T14:14:26;12.30;99.90
35531;DHT22;21637;53.352;-6.356;2023-11-19T14:16:52;12.30;99.90
35531;DHT22;21637;53.352;-6.356;2023-11-19T14:19:17;12.30;99.90
35531;DHT22;21637;53.352;-6.356;2023-11-19T14:21:43;12.40;99.90
35531;DHT22;21637;53.352;-6.356;2023-11-19T14:24:10;12.40;99.90
35531;DHT22;21637;53.352;-6.356;2023-11-19T14:26:36;12.40;99.90
35531;DHT22;21637;53.352;-6.356;2023-11-19T14:29:02;12.40;99.90
35531;DHT22;21637;53.352;-6.356;2023-11-19T14:31:28;12.40;99.90
35531;DHT22;21637;53.352;-6.356;2023-11-19T14:33:54;12.40;99.90
35531;DHT22;21637;53.352;-6.356;2023-11-19T14:36:20;12.40;99.90
35531;DHT22;21637;53.352;-6.356;2023-11-19T14:38:47;12.40;99.90
35531;DHT22;21637;53.352;-6.356;2023-11-19T14:41:12;12.30;99.90
35531;DHT22;21637;53.352;-6.356;2023-11-19T14:43:39;12.40;99.90
35531;DHT22;21637;53.352;-6.356;2023-11-19T14:46:05;12.40;99.90
35531;DHT22;21637;53.352;-6.356;2023-11-19T14:48:32;12.40;99.90
35531;DHT22;21637;53.352;-6.356;2023-11-19T14:50:58;12.40;99.90
35531;DHT22;21637;53.352;-6.356;2023-11-19T14:53:23;12.40;99.90
35531;DHT22;21637;53.352;-6.356;2023-11-19T14:55:49;12.30;99.90
35531;DHT22;21637;53.352;-6.356;2023-11-19T14:58:15;12.30;99.90
35531;DHT22;21637;53.352;-6.356;2023-11-19T15:00:40;12.30;99.90
35531;DHT22;21637;53.352;-6.356;2023-11-19T15:03:06;12.30;99.90
35531;DHT22;21637;53.352;-6.356;2023-11-19T15:05:34;12.30;99.90
35531;DHT22;21637;53.352;-6.356;2023-11-19T15:07:59;12.30;99.90
35531;DHT22;21637;53.352;-6.356;2023-11-19T15:10:25;12.30;99.90
35531;DHT22;21637;53.352;-6.356;2023-11-19T15:12:51;12.30;99.90
35531;DHT22;21637;53.352;-6.356;2023-11-19T15:15:18;12.20;99.90
35531;DHT22;21637;53.352;-6.356;2023-11-19T15:17:44;12.20;99.90
35531;DHT22;21637;53.352;-6.356;2023-11-19T15:20:10;12.20;99.90
35531;DHT22;21637;53.352;-6.356;2023-11-19T15:22:38;12.10;99.90
35531;DHT22;21637;53.352;-6.356;2023-11-19T15:25:04;12.10;99.90
35531;DHT22;21637;53.352;-6.356;2023-11-19T15:27:35;12.10;99.90
35531;DHT22;21637;53.352;-6.356;2023-11-19T15:30:02;12.10;99.90
35531;DHT22;21637;53.352;-6.356;2023-11-19T15:32:28;12.10;99.90
35531;DHT22;21637;53.352;-6.356;2023-11-19T15:34:57;12.10;99.90
35531;DHT22;21637;53.352;-6.356;2023-11-19T15:37:23;12.10;99.90
35531;DHT22;21637;53.352;-6.356;2023-11-19T15:39:49;12.00;99.90
35531;DHT22;21637;53.352;-6.356;2023-11-19T15:42:17;12.00;99.90